Airfield :
LOGIN :

Register | Disclaimer

   EN    FR    IT 

 










Legend :    VFR   Marginal VFR   IFR   Intensive IFR   Very Intensive IFR
Visi :
Ceiling :
>= 8 km
>= 3000ft
5 to 8 km
1000 to 3000 ft
1500m to 5 km
500 to 1000 ft
800 to 1500m
200 to 500 ft
< 800m
< 200 ft
Symbols :   Thunderstorms  Fog  Heavy snow  Heavy precipitations  Wind > 20 kt
SIGMETs :     Misc.  Thunderstorms  Icing  Turbulence  Mountain Waves  Volcanic Ashes







- Airport Elevation : 459 ft
- IATA code : CER
- Download approach charts


LFRC - Cherbourg / Maupertus

CURRENT METAR :
  • 181800Z AUTO 06011KT 040V100 9999 BKN017 OVC030 14/11 Q1024

EXPIRED METARs :
  • 181730Z AUTO 07011KT 9999 BKN017 BKN024 OVC033 14/11 Q1024 NOSIG
  • 181700Z AUTO 07011KT 030V090 9999 BKN013 BKN019 OVC026 15/12 Q1023 BECMG BKN017
  • 181630Z AUTO 07012KT 9999 BKN014 OVC020 15/11 Q1023 BECMG BKN017
  • 181600Z AUTO 07013KT 030V090 9999 BKN012 OVC019 15/12 Q1023 BECMG BKN017
  • 181530Z AUTO 07011KT 9999 BKN010 OVC014 15/12 Q1023 BECMG BKN017

TAF AMD TAF LFRC
Valid from the 18 at 16:00 until the 19 at 00:00 UTC


181642Z 1816/1824 06012KT 9999 BKN012
BECMG 1816/1818 BKN017
No reported NOTAMs for that airfield.



MET'MAP, your aeronautical weather chart ! - Copyright ORBIFLY December 2007 - Disclaimer

ORBIFLY MET'MAP TEAM :

Programming & Development : Alexandra Zaïnal
Concept & Development : Baudouin d'Aumeries
Co-Development & Prog : Marc-Olivier Méhu
Technical & hardware support : Manuel Goepfert

Contact : metmap@orbifly.com




SOURCES & CREDITS :

   NOAA